Time;durP1;ratioP1;P1;durP2;ratioP2;P2;SDS_P1;SDS_P2;PMS_P1;PMS_P2;Temp;Humidity;BMP_temperature;BMP_pressure;BME280_temperature;BME280_humidity;BME280_pressure;Samples;Min_cycle;Max_cycle;Signal;HPM_P1;HPM_P2
2023/05/08 00:01:32;;;;;;;18.50;10.02;;;;;;;;;;5085133;28;20036;-70
2023/05/08 00:03:58;;;;;;;17.80;10.25;;;;;;;;;;5083820;28;20392;-70
2023/05/08 00:06:23;;;;;;;28.58;14.77;;;;;;;;;;5074072;28;20094;-70
2023/05/08 00:08:49;;;;;;;30.92;15.63;;;;;;;;;;5086515;28;20028;-70
2023/05/08 00:11:14;;;;;;;32.42;16.55;;;;;;;;;;5086327;28;20032;-70
2023/05/08 00:13:40;;;;;;;27.52;14.35;;;;;;;;;;5085178;28;20047;-70
2023/05/08 00:16:08;;;;;;;30.95;15.25;;;;;;;;;;5085060;28;20043;-70
2023/05/08 00:18:34;;;;;;;35.03;15.02;;;;;;;;;;5085868;28;20032;-70
2023/05/08 00:21:00;;;;;;;36.17;16.48;;;;;;;;;;5085982;28;20067;-70
2023/05/08 00:23:25;;;;;;;35.42;16.45;;;;;;;;;;5084635;28;20129;-70
2023/05/08 00:25:50;;;;;;;35.63;16.20;;;;;;;;;;5086022;28;20028;-70
2023/05/08 00:28:16;;;;;;;40.97;16.98;;;;;;;;;;5085622;28;20574;-70
2023/05/08 00:30:41;;;;;;;32.67;16.20;;;;;;;;;;5086203;28;20036;-70
2023/05/08 00:33:06;;;;;;;38.75;16.25;;;;;;;;;;5084236;28;20031;-69
2023/05/08 00:35:32;;;;;;;40.67;16.25;;;;;;;;;;5081378;28;20028;-70
2023/05/08 00:37:57;;;;;;;44.13;19.40;;;;;;;;;;5084431;28;20055;-70
2023/05/08 00:40:23;;;;;;;37.75;16.70;;;;;;;;;;5083374;28;20758;-70
2023/05/08 00:42:48;;;;;;;39.00;17.85;;;;;;;;;;5085876;28;20028;-69
2023/05/08 00:45:13;;;;;;;36.17;17.08;;;;;;;;;;5077981;28;20032;-70
2023/05/08 00:47:39;;;;;;;40.58;19.00;;;;;;;;;;5080468;28;20103;-70
2023/05/08 00:50:04;;;;;;;44.08;18.83;;;;;;;;;;5085659;28;20036;-69
2023/05/08 00:52:31;;;;;;;42.10;18.40;;;;;;;;;;5084177;28;20032;-69
2023/05/08 00:54:58;;;;;;;48.75;18.52;;;;;;;;;;5085389;28;20218;-70
2023/05/08 00:57:23;;;;;;;45.20;19.52;;;;;;;;;;5083855;28;20556;-70
2023/05/08 00:59:50;;;;;;;81.57;21.88;;;;;;;;;;5085873;28;20075;-69
2023/05/08 01:02:15;;;;;;;70.18;22.65;;;;;;;;;;5084744;28;20040;-70
2023/05/08 01:04:43;;;;;;;78.07;22.60;;;;;;;;;;5086308;28;20047;-70
2023/05/08 01:07:09;;;;;;;89.35;23.70;;;;;;;;;;5072557;28;20084;-70
2023/05/08 01:09:35;;;;;;;102.82;23.25;;;;;;;;;;5082783;28;20131;-70
2023/05/08 01:12:45;;;;;;;69.65;23.42;;;;;;;;;;5088659;28;20111;-69
2023/05/08 01:15:16;;;;;;;72.80;24.27;;;;;;;;;;5060765;28;20054;-69
2023/05/08 01:17:54;;;;;;;93.95;24.08;;;;;;;;;;5066888;28;20028;-70
2023/05/08 01:20:51;;;;;;;92.72;22.00;;;;;;;;;;5086083;28;20031;-69
2023/05/08 01:23:34;;;;;;;131.02;23.80;;;;;;;;;;5074557;28;20794;-69
2023/05/08 01:26:02;;;;;;;139.55;29.88;;;;;;;;;;5101807;28;20033;-70
2023/05/08 01:29:01;;;;;;;137.32;34.90;;;;;;;;;;5089896;28;20040;-69
2023/05/08 01:32:01;;;;;;;136.07;35.42;;;;;;;;;;5083127;28;20509;-69
2023/05/08 01:34:31;;;;;;;105.15;33.05;;;;;;;;;;5089703;28;20036;-70
2023/05/08 01:37:31;;;;;;;105.30;35.30;;;;;;;;;;5087770;28;20035;-70
2023/05/08 01:40:09;;;;;;;102.88;33.65;;;;;;;;;;5065041;28;20053;-70
2023/05/08 01:42:48;;;;;;;110.10;34.33;;;;;;;;;;5089256;28;20048;-70
2023/05/08 01:45:37;;;;;;;100.15;33.30;;;;;;;;;;5088383;28;20516;-69
2023/05/08 01:48:10;;;;;;;103.60;32.85;;;;;;;;;;5083308;28;20500;-69
2023/05/08 01:50:47;;;;;;;100.18;32.60;;;;;;;;;;5086778;28;20044;-70
2023/05/08 01:53:17;;;;;;;100.18;29.83;;;;;;;;;;5087364;28;20048;-69
2023/05/08 01:55:46;;;;;;;97.85;31.13;;;;;;;;;;5088976;28;20521;-69
2023/05/08 01:58:12;;;;;;;95.60;30.80;;;;;;;;;;5087696;28;20040;-70
2023/05/08 02:00:40;;;;;;;95.18;29.45;;;;;;;;;;5085538;28;20036;-69
2023/05/08 02:03:08;;;;;;;98.57;29.52;;;;;;;;;;5087408;28;20032;-70
2023/05/08 02:05:36;;;;;;;84.00;28.05;;;;;;;;;;5087371;28;20039;-69
2023/05/08 02:08:03;;;;;;;90.55;28.58;;;;;;;;;;5087176;28;20038;-69
2023/05/08 02:10:29;;;;;;;97.57;28.52;;;;;;;;;;5087183;28;20069;-69
2023/05/08 02:12:55;;;;;;;95.35;28.73;;;;;;;;;;5082685;28;20108;-69
2023/05/08 02:15:22;;;;;;;83.90;26.55;;;;;;;;;;5079119;28;20028;-70
2023/05/08 02:17:49;;;;;;;91.80;27.55;;;;;;;;;;5086869;28;20390;-70
2023/05/08 02:20:15;;;;;;;86.45;26.13;;;;;;;;;;5087349;28;20039;-69
2023/05/08 02:22:43;;;;;;;82.82;26.95;;;;;;;;;;5087181;28;20040;-69
2023/05/08 02:25:13;;;;;;;86.32;26.17;;;;;;;;;;5076449;28;20089;-70
2023/05/08 02:27:44;;;;;;;85.22;26.17;;;;;;;;;;5086281;28;20131;-69
2023/05/08 02:30:12;;;;;;;78.85;25.45;;;;;;;;;;5086697;28;20032;-70
2023/05/08 02:32:40;;;;;;;84.05;26.67;;;;;;;;;;5087103;28;20488;-70
2023/05/08 02:35:07;;;;;;;72.97;25.35;;;;;;;;;;5085924;28;20103;-69
2023/05/08 02:37:33;;;;;;;76.88;24.45;;;;;;;;;;5086434;28;20043;-69
2023/05/08 02:40:03;;;;;;;85.72;24.88;;;;;;;;;;5079388;28;20539;-69
2023/05/08 02:42:29;;;;;;;84.07;25.67;;;;;;;;;;5081043;28;20047;-68
2023/05/08 02:44:54;;;;;;;73.80;25.10;;;;;;;;;;5084584;28;20015;-70
2023/05/08 02:47:24;;;;;;;74.20;25.90;;;;;;;;;;5087112;28;20043;-69
2023/05/08 02:50:07;;;;;;;73.57;24.45;;;;;;;;;;5074859;28;20044;-69
2023/05/08 02:53:04;;;;;;;94.93;24.77;;;;;;;;;;5085443;28;20417;-69
2023/05/08 02:55:37;;;;;;;85.80;25.70;;;;;;;;;;5076033;28;20063;-69
2023/05/08 02:58:21;;;;;;;82.72;23.80;;;;;;;;;;5071690;28;20047;-69
2023/05/08 03:00:54;;;;;;;89.00;26.05;;;;;;;;;;5046955;28;1130634;-70
2023/05/08 03:03:24;;;;;;;96.50;25.92;;;;;;;;;;5075624;28;20725;-69
2023/05/08 03:05:55;;;;;;;84.45;25.85;;;;;;;;;;5083593;28;20504;-69
2023/05/08 03:08:30;;;;;;;92.50;26.98;;;;;;;;;;5085356;28;20112;-70
2023/05/08 03:11:00;;;;;;;85.20;25.60;;;;;;;;;;5075410;28;20126;-69
2023/05/08 03:13:28;;;;;;;91.75;26.30;;;;;;;;;;5085949;28;20032;-69
2023/05/08 03:16:00;;;;;;;87.95;25.73;;;;;;;;;;5083927;28;20039;-69
2023/05/08 03:18:37;;;;;;;82.80;25.35;;;;;;;;;;5081660;28;20793;-70
2023/05/08 03:21:05;;;;;;;86.50;25.95;;;;;;;;;;5086707;28;20048;-70
2023/05/08 03:23:33;;;;;;;96.07;27.10;;;;;;;;;;5084340;28;20032;-69
2023/05/08 03:26:00;;;;;;;90.65;26.92;;;;;;;;;;5072650;28;20146;-68
2023/05/08 03:28:27;;;;;;;80.40;25.23;;;;;;;;;;5086434;28;20036;-69
2023/05/08 03:30:54;;;;;;;74.25;24.17;;;;;;;;;;5086869;28;20032;-70
2023/05/08 03:33:22;;;;;;;83.07;24.08;;;;;;;;;;5086597;28;20057;-69
2023/05/08 03:35:48;;;;;;;76.65;23.58;;;;;;;;;;5085831;28;20107;-70
2023/05/08 03:38:15;;;;;;;71.78;21.92;;;;;;;;;;5082935;28;20111;-69
2023/05/08 03:40:43;;;;;;;76.53;24.75;;;;;;;;;;5076878;28;20039;-69
2023/05/08 03:43:10;;;;;;;78.78;24.85;;;;;;;;;;5071544;28;20133;-69
2023/05/08 03:45:37;;;;;;;73.15;23.77;;;;;;;;;;5085315;28;20112;-69
2023/05/08 03:48:07;;;;;;;76.45;22.80;;;;;;;;;;5085041;28;20031;-70
2023/05/08 03:50:34;;;;;;;85.25;22.77;;;;;;;;;;5085609;28;20032;-69
2023/05/08 03:53:00;;;;;;;73.88;22.38;;;;;;;;;;5085026;28;20035;-69
2023/05/08 03:55:25;;;;;;;81.32;22.70;;;;;;;;;;5086723;28;20040;-69
2023/05/08 03:58:07;;;;;;;82.60;23.42;;;;;;;;;;5086696;28;20063;-70
2023/05/08 04:00:52;;;;;;;71.30;21.30;;;;;;;;;;5086066;28;20465;-69
2023/05/08 04:03:31;;;;;;;69.18;21.17;;;;;;;;;;5078424;28;20036;-69
2023/05/08 04:06:09;;;;;;;76.90;20.80;;;;;;;;;;5086992;28;20024;-70
2023/05/08 04:08:47;;;;;;;68.38;21.08;;;;;;;;;;5088192;28;20032;-69
2023/05/08 04:11:39;;;;;;;71.30;22.58;;;;;;;;;;5085000;28;20112;-70
2023/05/08 04:14:07;;;;;;;67.22;20.55;;;;;;;;;;5086776;28;20780;-69
2023/05/08 04:16:37;;;;;;;58.28;20.23;;;;;;;;;;5085681;28;20050;-70
2023/05/08 04:19:17;;;;;;;59.78;19.80;;;;;;;;;;5079684;28;20066;-70
2023/05/08 04:21:44;;;;;;;57.67;19.67;;;;;;;;;;5085258;28;20036;-70
2023/05/08 04:24:13;;;;;;;65.80;20.52;;;;;;;;;;5081559;28;20083;-70
2023/05/08 04:26:39;;;;;;;69.03;21.60;;;;;;;;;;5077952;28;20107;-70
2023/05/08 04:29:05;;;;;;;62.47;20.25;;;;;;;;;;5080190;28;20032;-70
2023/05/08 04:31:33;;;;;;;56.80;19.65;;;;;;;;;;5081556;28;20050;-70
2023/05/08 04:33:58;;;;;;;61.22;19.70;;;;;;;;;;5079765;28;20039;-70
2023/05/08 04:36:28;;;;;;;60.08;18.67;;;;;;;;;;5085024;28;20579;-70
2023/05/08 04:38:53;;;;;;;58.47;19.00;;;;;;;;;;5080053;28;20583;-70
2023/05/08 04:41:20;;;;;;;61.63;19.08;;;;;;;;;;5079240;28;20116;-70
2023/05/08 04:43:46;;;;;;;65.00;18.95;;;;;;;;;;5085651;28;20028;-70
2023/05/08 04:46:11;;;;;;;67.45;20.10;;;;;;;;;;5084563;28;20567;-70
2023/05/08 04:48:36;;;;;;;56.03;18.40;;;;;;;;;;5085497;28;20715;-70
2023/05/08 04:51:02;;;;;;;60.53;19.25;;;;;;;;;;5086103;28;20016;-70
2023/05/08 04:53:27;;;;;;;70.72;20.40;;;;;;;;;;5084525;28;20036;-70
2023/05/08 04:55:53;;;;;;;62.10;18.85;;;;;;;;;;5084745;28;20428;-70
2023/05/08 04:58:18;;;;;;;59.83;19.98;;;;;;;;;;5085344;28;20102;-70
2023/05/08 05:00:43;;;;;;;60.22;20.95;;;;;;;;;;5085304;28;20074;-70
2023/05/08 05:03:09;;;;;;;61.85;19.45;;;;;;;;;;5085206;28;20512;-70
2023/05/08 05:05:35;;;;;;;61.20;19.10;;;;;;;;;;5086290;28;20043;-70
2023/05/08 05:08:00;;;;;;;60.17;18.55;;;;;;;;;;5080747;28;20051;-70
2023/05/08 05:10:25;;;;;;;61.72;20.58;;;;;;;;;;5088567;28;20581;-70
2023/05/08 05:12:51;;;;;;;65.22;19.70;;;;;;;;;;5078681;28;20036;-70
2023/05/08 05:15:16;;;;;;;59.08;19.70;;;;;;;;;;5084799;28;20016;-70
2023/05/08 05:17:41;;;;;;;59.17;19.35;;;;;;;;;;5076138;28;20008;-70
2023/05/08 05:20:07;;;;;;;55.97;19.15;;;;;;;;;;5067251;28;20033;-71
2023/05/08 05:22:33;;;;;;;61.70;18.27;;;;;;;;;;5082140;28;20033;-70
2023/05/08 05:24:58;;;;;;;60.03;19.33;;;;;;;;;;5084467;28;20035;-69
2023/05/08 05:27:24;;;;;;;63.58;20.67;;;;;;;;;;5084823;28;20076;-70
2023/05/08 05:29:49;;;;;;;66.45;19.45;;;;;;;;;;5085746;28;20016;-69
2023/05/08 05:32:14;;;;;;;63.00;19.20;;;;;;;;;;5083846;28;20162;-70
2023/05/08 05:34:40;;;;;;;57.80;19.13;;;;;;;;;;5082327;28;20032;-70
2023/05/08 05:37:06;;;;;;;68.03;20.30;;;;;;;;;;5084152;28;20408;-67
2023/05/08 05:39:31;;;;;;;67.40;19.00;;;;;;;;;;5079002;28;20067;-69
2023/05/08 05:41:57;;;;;;;73.70;19.48;;;;;;;;;;5080909;28;20026;-70
2023/05/08 05:44:22;;;;;;;67.30;18.98;;;;;;;;;;5079867;28;20035;-69
2023/05/08 05:46:47;;;;;;;70.45;19.73;;;;;;;;;;5084704;28;20115;-69
2023/05/08 05:49:13;;;;;;;67.38;19.95;;;;;;;;;;5085682;28;20073;-69
2023/05/08 05:51:38;;;;;;;80.18;19.98;;;;;;;;;;5081250;28;20162;-69
2023/05/08 05:54:03;;;;;;;85.43;20.92;;;;;;;;;;5080784;28;20032;-69
2023/05/08 05:56:29;;;;;;;79.18;20.23;;;;;;;;;;5086525;28;20078;-69
2023/05/08 05:58:54;;;;;;;63.55;19.15;;;;;;;;;;5085332;28;20107;-69
2023/05/08 06:01:20;;;;;;;71.57;18.63;;;;;;;;;;5092460;28;20044;-69
2023/05/08 06:03:46;;;;;;;75.45;18.42;;;;;;;;;;5088679;28;20024;-68
2023/05/08 06:06:11;;;;;;;70.55;19.80;;;;;;;;;;5085498;28;20016;-70
2023/05/08 06:08:37;;;;;;;65.47;18.52;;;;;;;;;;5069510;28;20039;-70
2023/05/08 06:11:02;;;;;;;79.15;19.48;;;;;;;;;;5074924;28;20032;-69
2023/05/08 06:13:27;;;;;;;66.80;18.35;;;;;;;;;;5071635;28;20028;-70
2023/05/08 06:15:57;;;;;;;64.25;17.75;;;;;;;;;;5084807;28;20036;-70
2023/05/08 06:18:22;;;;;;;66.60;19.20;;;;;;;;;;5087696;28;20028;-69
2023/05/08 06:20:48;;;;;;;58.10;16.55;;;;;;;;;;5089081;28;20012;-69
2023/05/08 06:23:13;;;;;;;52.45;17.40;;;;;;;;;;5081273;28;20050;-70
2023/05/08 06:25:39;;;;;;;55.47;17.08;;;;;;;;;;5086700;28;20024;-70
2023/05/08 06:28:06;;;;;;;61.95;18.02;;;;;;;;;;5088515;28;20028;-70
2023/05/08 06:30:32;;;;;;;62.25;17.48;;;;;;;;;;5087617;28;20029;-70
2023/05/08 06:32:58;;;;;;;60.97;17.45;;;;;;;;;;5089074;28;20024;-70
2023/05/08 06:35:23;;;;;;;53.17;16.15;;;;;;;;;;5087458;28;20036;-69
2023/05/08 06:37:48;;;;;;;59.47;15.60;;;;;;;;;;5087640;28;20194;-70
2023/05/08 06:40:14;;;;;;;61.80;16.63;;;;;;;;;;5083950;28;20102;-72
2023/05/08 06:42:40;;;;;;;64.43;16.73;;;;;;;;;;5084175;28;20505;-69
2023/05/08 06:45:06;;;;;;;56.35;17.10;;;;;;;;;;5084186;28;20038;-71
2023/05/08 06:47:31;;;;;;;62.47;17.05;;;;;;;;;;5082400;28;20046;-70
2023/05/08 06:49:57;;;;;;;65.60;18.60;;;;;;;;;;5079864;28;20127;-71
2023/05/08 06:52:24;;;;;;;63.50;17.40;;;;;;;;;;5072542;28;20033;-71
2023/05/08 06:54:49;;;;;;;57.92;16.23;;;;;;;;;;5081008;28;20031;-71
2023/05/08 06:57:15;;;;;;;55.13;16.17;;;;;;;;;;5088961;28;20024;-71
2023/05/08 06:59:40;;;;;;;52.22;14.85;;;;;;;;;;5080135;28;20086;-70
2023/05/08 07:02:06;;;;;;;47.85;14.43;;;;;;;;;;5076460;28;20039;-71
2023/05/08 07:04:31;;;;;;;45.88;14.35;;;;;;;;;;5071716;28;20168;-71
2023/05/08 07:06:57;;;;;;;46.25;14.82;;;;;;;;;;5076886;28;20059;-71
2023/05/08 07:09:22;;;;;;;45.63;14.95;;;;;;;;;;5073929;28;20093;-71
2023/05/08 07:11:48;;;;;;;42.45;14.07;;;;;;;;;;5074669;28;20030;-71
2023/05/08 07:14:13;;;;;;;38.78;13.32;;;;;;;;;;5073780;28;20040;-71
2023/05/08 07:16:39;;;;;;;40.25;13.85;;;;;;;;;;5066281;28;20020;-71
2023/05/08 07:19:04;;;;;;;39.70;12.75;;;;;;;;;;5067128;28;20033;-71
2023/05/08 07:21:29;;;;;;;37.33;12.20;;;;;;;;;;5081237;28;20119;-71
2023/05/08 07:23:55;;;;;;;37.00;11.75;;;;;;;;;;5076506;28;20032;-70
2023/05/08 07:26:21;;;;;;;30.95;11.93;;;;;;;;;;5079771;28;20090;-70
2023/05/08 07:28:47;;;;;;;26.27;11.55;;;;;;;;;;5086289;28;20731;-70
2023/05/08 07:31:12;;;;;;;26.02;10.77;;;;;;;;;;5080497;28;20040;-71
2023/05/08 07:33:38;;;;;;;28.98;11.15;;;;;;;;;;5082472;28;20042;-71
2023/05/08 07:36:03;;;;;;;27.40;10.70;;;;;;;;;;5086735;28;20028;-71
2023/05/08 07:38:29;;;;;;;26.67;9.85;;;;;;;;;;5085764;28;20115;-71
2023/05/08 07:40:56;;;;;;;27.88;10.25;;;;;;;;;;5078296;28;20089;-71
2023/05/08 07:43:22;;;;;;;23.90;10.32;;;;;;;;;;5075934;28;20035;-71
2023/05/08 07:45:48;;;;;;;25.63;9.88;;;;;;;;;;5085828;28;20028;-71
2023/05/08 07:48:13;;;;;;;29.35;11.23;;;;;;;;;;5084397;28;20027;-71
2023/05/08 07:50:38;;;;;;;24.90;9.98;;;;;;;;;;5086126;28;20525;-72
2023/05/08 07:53:05;;;;;;;24.58;9.98;;;;;;;;;;5085315;28;20043;-71
2023/05/08 07:55:30;;;;;;;23.95;9.75;;;;;;;;;;5082706;28;20588;-71
2023/05/08 07:57:56;;;;;;;26.88;10.18;;;;;;;;;;5076310;28;20138;-71
2023/05/08 08:00:21;;;;;;;28.27;10.80;;;;;;;;;;5072075;28;20548;-71
2023/05/08 08:02:46;;;;;;;27.20;9.88;;;;;;;;;;5086201;28;20163;-71
2023/05/08 08:05:12;;;;;;;25.52;11.00;;;;;;;;;;5081915;28;20102;-69
2023/05/08 08:07:37;;;;;;;27.35;10.68;;;;;;;;;;5077851;28;20067;-71
2023/05/08 08:10:03;;;;;;;27.40;10.65;;;;;;;;;;5086187;28;20624;-70
2023/05/08 08:12:30;;;;;;;26.83;10.90;;;;;;;;;;5085947;28;20111;-71
2023/05/08 08:14:55;;;;;;;27.40;11.20;;;;;;;;;;5082890;28;20024;-72
2023/05/08 08:17:21;;;;;;;26.23;10.20;;;;;;;;;;5073993;28;20066;-72
2023/05/08 08:19:47;;;;;;;31.67;12.20;;;;;;;;;;5079888;28;20024;-71
2023/05/08 08:22:13;;;;;;;25.85;10.70;;;;;;;;;;5085803;28;20028;-71
2023/05/08 08:24:39;;;;;;;26.17;10.98;;;;;;;;;;5072523;28;20183;-71
2023/05/08 08:27:04;;;;;;;25.75;10.90;;;;;;;;;;5079740;28;20413;-72
2023/05/08 08:29:29;;;;;;;21.65;9.98;;;;;;;;;;5085720;28;20100;-72
2023/05/08 08:31:55;;;;;;;23.90;10.00;;;;;;;;;;5085651;28;20111;-72
2023/05/08 08:34:20;;;;;;;26.77;10.32;;;;;;;;;;5079692;28;20109;-72
2023/05/08 08:36:46;;;;;;;27.55;10.75;;;;;;;;;;5081319;28;20036;-72
2023/05/08 08:39:11;;;;;;;22.17;9.60;;;;;;;;;;5088570;28;20480;-72
2023/05/08 08:41:40;;;;;;;22.98;9.73;;;;;;;;;;5085128;28;20020;-71
2023/05/08 08:44:06;;;;;;;20.88;8.85;;;;;;;;;;5082317;28;20040;-71
2023/05/08 08:46:32;;;;;;;22.10;9.40;;;;;;;;;;5074479;28;20108;-72
2023/05/08 08:48:58;;;;;;;24.20;9.63;;;;;;;;;;5070759;28;20139;-71
2023/05/08 08:51:31;;;;;;;22.65;9.95;;;;;;;;;;5065520;28;20091;-71
2023/05/08 08:54:08;;;;;;;22.35;9.80;;;;;;;;;;5084880;28;20743;-70
2023/05/08 08:56:35;;;;;;;25.80;9.95;;;;;;;;;;5085389;28;20122;-71
2023/05/08 08:59:00;;;;;;;22.33;9.82;;;;;;;;;;5079410;28;20054;-72
2023/05/08 09:01:28;;;;;;;21.33;9.98;;;;;;;;;;5074365;28;20036;-73
2023/05/08 09:03:56;;;;;;;24.23;9.68;;;;;;;;;;5066786;28;20040;-70
2023/05/08 09:06:22;;;;;;;20.73;8.95;;;;;;;;;;5062901;28;20515;-71
2023/05/08 09:08:48;;;;;;;19.80;9.07;;;;;;;;;;5069575;28;20063;-71
2023/05/08 09:11:13;;;;;;;21.30;9.30;;;;;;;;;;5073123;28;20085;-71
2023/05/08 09:13:38;;;;;;;28.92;9.48;;;;;;;;;;5075912;28;20048;-71
2023/05/08 09:16:04;;;;;;;23.13;9.98;;;;;;;;;;5074383;28;20476;-71
2023/05/08 09:18:30;;;;;;;24.10;10.18;;;;;;;;;;5071466;28;20119;-71
2023/05/08 09:20:56;;;;;;;26.83;9.35;;;;;;;;;;5077822;28;20192;-71
2023/05/08 09:23:21;;;;;;;30.20;9.55;;;;;;;;;;5071401;28;20686;-72
2023/05/08 09:25:49;;;;;;;26.23;9.15;;;;;;;;;;5079180;28;20105;-71
2023/05/08 09:28:19;;;;;;;24.92;10.75;;;;;;;;;;5077549;28;20529;-72
2023/05/08 09:30:55;;;;;;;22.15;9.05;;;;;;;;;;5073397;28;20048;-71
2023/05/08 09:33:24;;;;;;;21.58;9.57;;;;;;;;;;5071822;28;20704;-72
2023/05/08 09:35:50;;;;;;;20.38;8.60;;;;;;;;;;5075032;28;20032;-73
2023/05/08 09:38:34;;;;;;;23.08;9.43;;;;;;;;;;5077213;28;20478;-73
2023/05/08 09:41:14;;;;;;;23.73;8.55;;;;;;;;;;5076833;28;20079;-71
2023/05/08 09:43:41;;;;;;;20.70;8.65;;;;;;;;;;5084795;28;20024;-72
2023/05/08 09:46:22;;;;;;;27.77;10.18;;;;;;;;;;5077251;28;20087;-71
2023/05/08 09:48:49;;;;;;;23.67;9.40;;;;;;;;;;5078573;28;20120;-72
2023/05/08 09:51:14;;;;;;;23.15;9.48;;;;;;;;;;5076826;28;20059;-72
2023/05/08 09:53:40;;;;;;;20.65;9.00;;;;;;;;;;5082556;28;20434;-72
2023/05/08 09:56:05;;;;;;;27.73;9.00;;;;;;;;;;5068499;28;20041;-71
2023/05/08 09:58:41;;;;;;;19.70;8.73;;;;;;;;;;5075337;28;20035;-70
2023/05/08 10:01:07;;;;;;;20.48;8.63;;;;;;;;;;5047363;28;20041;-71
2023/05/08 10:03:49;;;;;;;22.15;10.13;;;;;;;;;;5037409;28;20065;-70
2023/05/08 10:06:15;;;;;;;21.85;9.05;;;;;;;;;;5041570;28;20028;-70
2023/05/08 10:08:40;;;;;;;19.52;8.73;;;;;;;;;;5043621;28;20391;-71
2023/05/08 10:11:16;;;;;;;18.02;8.88;;;;;;;;;;5043899;28;20037;-70
2023/05/08 10:13:45;;;;;;;20.40;9.63;;;;;;;;;;5036615;28;20025;-71
2023/05/08 10:16:16;;;;;;;19.75;9.25;;;;;;;;;;5034121;28;20037;-70
2023/05/08 10:18:49;;;;;;;18.73;8.35;;;;;;;;;;5035237;28;20103;-70
2023/05/08 10:21:16;;;;;;;19.35;9.23;;;;;;;;;;5033339;28;20510;-70
2023/05/08 10:23:43;;;;;;;18.80;8.75;;;;;;;;;;5032995;28;20814;-70
2023/05/08 10:26:23;;;;;;;19.48;8.75;;;;;;;;;;5032808;28;20178;-70
2023/05/08 10:28:58;;;;;;;18.00;9.35;;;;;;;;;;5046193;28;20060;-69
2023/05/08 10:31:25;;;;;;;20.33;9.25;;;;;;;;;;5030161;28;20040;-69
2023/05/08 10:33:54;;;;;;;20.33;8.75;;;;;;;;;;5036283;28;20692;-70
2023/05/08 10:36:22;;;;;;;19.40;9.13;;;;;;;;;;5038437;28;20025;-70
2023/05/08 10:38:49;;;;;;;23.58;9.77;;;;;;;;;;5040789;28;20025;-70
2023/05/08 10:41:14;;;;;;;19.30;9.20;;;;;;;;;;5032453;28;20044;-69
2023/05/08 10:43:41;;;;;;;18.85;9.25;;;;;;;;;;5043311;28;20033;-70
2023/05/08 10:46:17;;;;;;;17.90;8.75;;;;;;;;;;5042457;28;20029;-69
2023/05/08 10:49:11;;;;;;;19.88;9.13;;;;;;;;;;5034202;28;20520;-70
2023/05/08 10:51:50;;;;;;;20.60;8.85;;;;;;;;;;5046295;28;20033;-70
2023/05/08 10:54:29;;;;;;;16.63;8.70;;;;;;;;;;5047037;28;20516;-70
2023/05/08 10:57:08;;;;;;;22.75;9.55;;;;;;;;;;5026305;28;20036;-69
2023/05/08 10:59:37;;;;;;;19.23;9.25;;;;;;;;;;5054537;28;20040;-70
2023/05/08 11:02:05;;;;;;;17.05;8.20;;;;;;;;;;5086274;28;20044;-70
2023/05/08 11:04:30;;;;;;;21.45;9.23;;;;;;;;;;5077496;28;20103;-69
2023/05/08 11:06:57;;;;;;;19.15;8.88;;;;;;;;;;5092675;28;20132;-70
2023/05/08 11:09:45;;;;;;;18.50;8.50;;;;;;;;;;5094728;28;20024;-70
2023/05/08 11:12:22;;;;;;;18.67;8.75;;;;;;;;;;5081948;28;20028;-71
2023/05/08 11:15:34;;;;;;;17.25;8.52;;;;;;;;;;5087692;28;20020;-70
2023/05/08 11:18:03;;;;;;;20.10;8.57;;;;;;;;;;5083924;28;20042;-70
2023/05/08 11:21:05;;;;;;;15.13;8.13;;;;;;;;;;5075651;28;20035;-70
2023/05/08 11:23:35;;;;;;;22.00;9.18;;;;;;;;;;5080259;28;20036;-70
2023/05/08 11:26:10;;;;;;;16.92;8.75;;;;;;;;;;5086173;28;20035;-70
2023/05/08 11:28:55;;;;;;;16.75;8.55;;;;;;;;;;5085828;28;20046;-70
2023/05/08 11:31:21;;;;;;;20.08;8.32;;;;;;;;;;5074045;28;20044;-70
2023/05/08 11:33:47;;;;;;;17.17;8.32;;;;;;;;;;5085383;28;20028;-70
2023/05/08 11:36:19;;;;;;;17.60;8.35;;;;;;;;;;5086684;28;20027;-69
2023/05/08 11:39:09;;;;;;;20.90;8.15;;;;;;;;;;5087408;28;20453;-71
2023/05/08 11:41:35;;;;;;;19.63;8.77;;;;;;;;;;5082677;28;20336;-70
2023/05/08 11:44:12;;;;;;;18.48;8.85;;;;;;;;;;5086239;28;20576;-70
2023/05/08 11:46:49;;;;;;;18.88;8.45;;;;;;;;;;5082305;28;20081;-70
2023/05/08 11:49:15;;;;;;;17.00;8.15;;;;;;;;;;5073643;28;20413;-70
2023/05/08 11:51:45;;;;;;;17.02;7.88;;;;;;;;;;5080123;28;20387;-70
2023/05/08 11:54:16;;;;;;;19.52;12.23;;;;;;;;;;5085894;28;20052;-70
2023/05/08 11:56:42;;;;;;;15.10;8.07;;;;;;;;;;5074488;28;20060;-71
2023/05/08 11:59:08;;;;;;;15.85;7.35;;;;;;;;;;5073230;28;20065;-70
2023/05/08 12:01:34;;;;;;;16.90;8.05;;;;;;;;;;5074178;28;20111;-70
2023/05/08 12:04:01;;;;;;;15.65;7.88;;;;;;;;;;5083323;28;20024;-71
2023/05/08 12:06:27;;;;;;;18.15;7.63;;;;;;;;;;5084081;28;20014;-71
2023/05/08 12:08:52;;;;;;;14.93;7.68;;;;;;;;;;5080468;28;20016;-70
2023/05/08 12:11:24;;;;;;;17.50;8.27;;;;;;;;;;5079102;28;20109;-70
2023/05/08 12:13:51;;;;;;;17.15;7.90;;;;;;;;;;5084368;28;20031;-70
2023/05/08 12:16:16;;;;;;;14.25;7.72;;;;;;;;;;5082643;28;20109;-70
2023/05/08 12:18:42;;;;;;;12.73;7.35;;;;;;;;;;5079062;28;20059;-70
2023/05/08 12:21:10;;;;;;;17.15;7.90;;;;;;;;;;5078285;28;20028;-69
2023/05/08 12:23:35;;;;;;;15.43;7.05;;;;;;;;;;5081961;28;20022;-69
2023/05/08 12:26:01;;;;;;;15.73;7.63;;;;;;;;;;5083013;28;20032;-70
2023/05/08 12:28:27;;;;;;;14.57;7.57;;;;;;;;;;5079380;28;20052;-70
2023/05/08 12:30:53;;;;;;;15.23;7.78;;;;;;;;;;5084760;28;20473;-69
2023/05/08 12:33:19;;;;;;;14.65;7.55;;;;;;;;;;5083917;28;20599;-70
2023/05/08 12:35:45;;;;;;;14.10;7.10;;;;;;;;;;5077420;28;20802;-69
2023/05/08 12:38:10;;;;;;;12.70;7.03;;;;;;;;;;5070011;28;20467;-70
2023/05/08 12:40:41;;;;;;;13.32;6.82;;;;;;;;;;5069056;28;20045;-69
2023/05/08 12:43:07;;;;;;;13.23;6.68;;;;;;;;;;5069149;28;20036;-69
2023/05/08 12:45:35;;;;;;;13.95;7.80;;;;;;;;;;5068901;28;20081;-72
2023/05/08 12:48:06;;;;;;;17.83;6.40;;;;;;;;;;5082211;28;20107;-70
2023/05/08 12:50:37;;;;;;;10.50;6.55;;;;;;;;;;5084967;28;20028;-70
2023/05/08 12:53:06;;;;;;;11.88;6.55;;;;;;;;;;5080719;28;20397;-71
2023/05/08 12:55:33;;;;;;;15.18;7.55;;;;;;;;;;5073752;28;20139;-70
2023/05/08 12:58:12;;;;;;;13.93;7.13;;;;;;;;;;5076582;28;20559;-70
2023/05/08 13:00:46;;;;;;;10.90;5.72;;;;;;;;;;5079238;28;20036;-69
2023/05/08 13:03:25;;;;;;;11.73;5.72;;;;;;;;;;5066873;28;20035;-70
2023/05/08 13:05:52;;;;;;;10.73;5.30;;;;;;;;;;5075688;28;20109;-69
2023/05/08 13:08:17;;;;;;;14.60;10.68;;;;;;;;;;5069010;28;20047;-69
2023/05/08 13:10:44;;;;;;;10.98;5.57;;;;;;;;;;5069139;28;20457;-69
2023/05/08 13:13:10;;;;;;;12.93;5.18;;;;;;;;;;5075092;28;20120;-69
2023/05/08 13:15:35;;;;;;;10.93;5.88;;;;;;;;;;5073178;28;20761;-70
2023/05/08 13:18:00;;;;;;;10.48;5.50;;;;;;;;;;5078979;28;20031;-70
2023/05/08 13:20:26;;;;;;;9.77;5.40;;;;;;;;;;5081472;28;20032;-70
2023/05/08 13:22:51;;;;;;;11.15;5.07;;;;;;;;;;5068493;28;20574;-69
2023/05/08 13:25:16;;;;;;;9.70;5.50;;;;;;;;;;5068680;28;20025;-69
2023/05/08 13:27:42;;;;;;;9.93;5.80;;;;;;;;;;5081267;28;20035;-70
2023/05/08 13:30:07;;;;;;;11.70;5.97;;;;;;;;;;5070502;28;20028;-70
2023/05/08 13:32:33;;;;;;;12.75;6.07;;;;;;;;;;5067749;28;20089;-69
2023/05/08 13:34:58;;;;;;;13.52;6.72;;;;;;;;;;5075036;28;20543;-69
2023/05/08 13:37:23;;;;;;;13.00;8.18;;;;;;;;;;5086050;28;20577;-69
2023/05/08 13:39:49;;;;;;;12.25;7.60;;;;;;;;;;5069071;28;20039;-70
2023/05/08 13:42:14;;;;;;;14.63;7.60;;;;;;;;;;5067697;28;20074;-69
2023/05/08 13:44:39;;;;;;;12.57;5.95;;;;;;;;;;5073069;28;20028;-70
2023/05/08 13:47:05;;;;;;;9.75;5.88;;;;;;;;;;5069376;28;20481;-69
2023/05/08 13:49:30;;;;;;;9.07;5.35;;;;;;;;;;5072673;28;20033;-69
2023/05/08 13:51:55;;;;;;;10.88;6.10;;;;;;;;;;5068005;28;20548;-70
2023/05/08 13:54:21;;;;;;;9.38;5.63;;;;;;;;;;5084826;28;20020;-69
2023/05/08 13:56:47;;;;;;;13.73;6.53;;;;;;;;;;5079509;28;20012;-70
2023/05/08 13:59:12;;;;;;;12.38;7.47;;;;;;;;;;5080104;28;20079;-70
2023/05/08 14:01:38;;;;;;;13.95;7.25;;;;;;;;;;5065468;28;20417;-70
2023/05/08 14:04:03;;;;;;;13.75;7.15;;;;;;;;;;5068261;28;20029;-69
2023/05/08 14:06:29;;;;;;;13.32;7.10;;;;;;;;;;5080975;28;20032;-70
2023/05/08 14:08:54;;;;;;;13.07;6.22;;;;;;;;;;5067691;28;20055;-69
2023/05/08 14:11:21;;;;;;;12.45;6.90;;;;;;;;;;5072613;28;20032;-70
2023/05/08 14:13:46;;;;;;;13.50;7.22;;;;;;;;;;5066296;28;20097;-69
2023/05/08 14:16:13;;;;;;;12.43;6.80;;;;;;;;;;5069700;28;20778;-70
2023/05/08 14:18:39;;;;;;;14.13;6.70;;;;;;;;;;5071825;28;20489;-70
2023/05/08 14:21:04;;;;;;;12.55;6.47;;;;;;;;;;5070144;28;20509;-70
2023/05/08 14:23:30;;;;;;;11.88;6.75;;;;;;;;;;5071736;28;20029;-70
2023/05/08 14:25:55;;;;;;;13.60;7.65;;;;;;;;;;5082775;28;20081;-70
2023/05/08 14:28:21;;;;;;;11.48;6.68;;;;;;;;;;5082960;28;20033;-70
2023/05/08 14:30:46;;;;;;;10.77;6.78;;;;;;;;;;5077363;28;20717;-69